sensor_id;sensor_type;location;lat;lon;timestamp;temperature;humidity
22065;DHT22;11197;53.110;8.468;2023-04-03T00:02:00;3.80;99.90
22065;DHT22;11197;53.110;8.468;2023-04-03T00:04:26;3.80;99.90
22065;DHT22;11197;53.110;8.468;2023-04-03T00:06:52;3.70;99.90
22065;DHT22;11197;53.110;8.468;2023-04-03T00:09:17;3.70;99.90
22065;DHT22;11197;53.110;8.468;2023-04-03T00:11:43;3.70;99.90
22065;DHT22;11197;53.110;8.468;2023-04-03T00:14:09;3.70;99.90
22065;DHT22;11197;53.110;8.468;2023-04-03T00:16:35;3.60;99.90
22065;DHT22;11197;53.110;8.468;2023-04-03T00:19:01;3.60;99.90
22065;DHT22;11197;53.110;8.468;2023-04-03T00:21:26;3.60;99.90
22065;DHT22;11197;53.110;8.468;2023-04-03T00:23:52;3.60;99.90
22065;DHT22;11197;53.110;8.468;2023-04-03T00:26:18;3.60;99.90
22065;DHT22;11197;53.110;8.468;2023-04-03T00:28:44;3.60;99.90
22065;DHT22;11197;53.110;8.468;2023-04-03T00:31:10;3.50;99.90
22065;DHT22;11197;53.110;8.468;2023-04-03T00:33:36;3.50;99.90
22065;DHT22;11197;53.110;8.468;2023-04-03T00:36:09;3.40;99.90
22065;DHT22;11197;53.110;8.468;2023-04-03T00:38:36;3.40;99.90
22065;DHT22;11197;53.110;8.468;2023-04-03T00:41:02;3.30;99.90
22065;DHT22;11197;53.110;8.468;2023-04-03T00:43:28;3.30;99.90
22065;DHT22;11197;53.110;8.468;2023-04-03T00:45:57;3.20;99.90
22065;DHT22;11197;53.110;8.468;2023-04-03T00:48:27;3.20;99.90
22065;DHT22;11197;53.110;8.468;2023-04-03T00:50:54;3.20;99.90
22065;DHT22;11197;53.110;8.468;2023-04-03T00:53:37;3.20;99.90
22065;DHT22;11197;53.110;8.468;2023-04-03T00:56:06;3.10;99.90
22065;DHT22;11197;53.110;8.468;2023-04-03T00:58:41;3.10;99.90
22065;DHT22;11197;53.110;8.468;2023-04-03T01:01:12;3.10;99.90
22065;DHT22;11197;53.110;8.468;2023-04-03T01:03:39;3.00;99.90
22065;DHT22;11197;53.110;8.468;2023-04-03T01:06:05;3.00;99.90
22065;DHT22;11197;53.110;8.468;2023-04-03T01:08:31;3.00;99.90
22065;DHT22;11197;53.110;8.468;2023-04-03T01:10:57;2.90;99.90
22065;DHT22;11197;53.110;8.468;2023-04-03T01:13:26;2.90;99.90
22065;DHT22;11197;53.110;8.468;2023-04-03T01:15:53;2.90;99.90
22065;DHT22;11197;53.110;8.468;2023-04-03T01:18:19;2.90;99.90
22065;DHT22;11197;53.110;8.468;2023-04-03T01:24:14;2.80;99.90
22065;DHT22;11197;53.110;8.468;2023-04-03T01:26:33;2.80;99.90
22065;DHT22;11197;53.110;8.468;2023-04-03T01:29:00;2.80;99.90
22065;DHT22;11197;53.110;8.468;2023-04-03T01:34:02;2.70;99.90
22065;DHT22;11197;53.110;8.468;2023-04-03T01:36:31;2.70;99.90
22065;DHT22;11197;53.110;8.468;2023-04-03T01:38:59;2.70;99.90
22065;DHT22;11197;53.110;8.468;2023-04-03T01:41:26;2.70;99.90
22065;DHT22;11197;53.110;8.468;2023-04-03T01:44:00;2.60;99.90
22065;DHT22;11197;53.110;8.468;2023-04-03T01:46:26;2.60;99.90
22065;DHT22;11197;53.110;8.468;2023-04-03T01:48:52;2.60;99.90
22065;DHT22;11197;53.110;8.468;2023-04-03T01:51:17;2.60;99.90
22065;DHT22;11197;53.110;8.468;2023-04-03T01:53:43;2.60;99.90
22065;DHT22;11197;53.110;8.468;2023-04-03T01:56:09;2.50;99.90
22065;DHT22;11197;53.110;8.468;2023-04-03T01:58:35;2.50;99.90
22065;DHT22;11197;53.110;8.468;2023-04-03T02:01:02;2.50;99.90
22065;DHT22;11197;53.110;8.468;2023-04-03T02:03:28;2.50;99.90
22065;DHT22;11197;53.110;8.468;2023-04-03T02:05:54;2.50;99.90
22065;DHT22;11197;53.110;8.468;2023-04-03T02:08:20;2.40;99.90
22065;DHT22;11197;53.110;8.468;2023-04-03T02:10:47;2.50;99.90
22065;DHT22;11197;53.110;8.468;2023-04-03T02:13:15;2.40;99.90
22065;DHT22;11197;53.110;8.468;2023-04-03T02:15:41;2.40;99.90
22065;DHT22;11197;53.110;8.468;2023-04-03T02:18:07;2.40;99.90
22065;DHT22;11197;53.110;8.468;2023-04-03T02:20:33;2.40;99.90
22065;DHT22;11197;53.110;8.468;2023-04-03T02:22:59;2.40;99.90
22065;DHT22;11197;53.110;8.468;2023-04-03T02:25:25;2.40;99.90
22065;DHT22;11197;53.110;8.468;2023-04-03T02:27:52;2.30;99.90
22065;DHT22;11197;53.110;8.468;2023-04-03T02:30:18;2.30;99.90
22065;DHT22;11197;53.110;8.468;2023-04-03T02:32:44;2.30;99.90
22065;DHT22;11197;53.110;8.468;2023-04-03T02:35:10;2.30;99.90
22065;DHT22;11197;53.110;8.468;2023-04-03T02:37:38;2.30;99.90
22065;DHT22;11197;53.110;8.468;2023-04-03T02:40:05;2.20;99.90
22065;DHT22;11197;53.110;8.468;2023-04-03T02:42:31;2.20;99.90
22065;DHT22;11197;53.110;8.468;2023-04-03T02:45:00;2.20;99.90
22065;DHT22;11197;53.110;8.468;2023-04-03T02:47:27;2.20;99.90
22065;DHT22;11197;53.110;8.468;2023-04-03T02:49:53;2.10;99.90
22065;DHT22;11197;53.110;8.468;2023-04-03T02:52:19;2.10;99.90
22065;DHT22;11197;53.110;8.468;2023-04-03T02:54:47;2.10;99.90
22065;DHT22;11197;53.110;8.468;2023-04-03T02:57:13;2.10;99.90
22065;DHT22;11197;53.110;8.468;2023-04-03T02:59:39;2.00;99.90
22065;DHT22;11197;53.110;8.468;2023-04-03T03:02:10;2.00;99.90
22065;DHT22;11197;53.110;8.468;2023-04-03T03:04:36;2.00;99.90
22065;DHT22;11197;53.110;8.468;2023-04-03T03:07:02;2.00;99.90
22065;DHT22;11197;53.110;8.468;2023-04-03T03:09:29;2.00;99.90
22065;DHT22;11197;53.110;8.468;2023-04-03T03:11:56;1.90;99.90
22065;DHT22;11197;53.110;8.468;2023-04-03T03:14:22;1.90;99.90
22065;DHT22;11197;53.110;8.468;2023-04-03T03:16:48;1.90;99.90
22065;DHT22;11197;53.110;8.468;2023-04-03T03:19:14;1.90;99.90
22065;DHT22;11197;53.110;8.468;2023-04-03T03:21:40;1.80;99.90
22065;DHT22;11197;53.110;8.468;2023-04-03T03:24:07;1.90;99.90
22065;DHT22;11197;53.110;8.468;2023-04-03T03:26:32;1.80;99.90
22065;DHT22;11197;53.110;8.468;2023-04-03T03:28:58;1.80;99.90
22065;DHT22;11197;53.110;8.468;2023-04-03T03:31:25;1.80;99.90
22065;DHT22;11197;53.110;8.468;2023-04-03T03:33:51;1.80;99.90
22065;DHT22;11197;53.110;8.468;2023-04-03T03:36:18;1.70;99.90
22065;DHT22;11197;53.110;8.468;2023-04-03T03:38:44;1.70;99.90
22065;DHT22;11197;53.110;8.468;2023-04-03T03:41:10;1.70;99.90
22065;DHT22;11197;53.110;8.468;2023-04-03T03:43:36;1.70;99.90
22065;DHT22;11197;53.110;8.468;2023-04-03T03:46:04;1.70;99.90
22065;DHT22;11197;53.110;8.468;2023-04-03T03:48:30;1.60;99.90
22065;DHT22;11197;53.110;8.468;2023-04-03T03:50:56;1.70;99.90
22065;DHT22;11197;53.110;8.468;2023-04-03T03:53:26;1.60;99.90
22065;DHT22;11197;53.110;8.468;2023-04-03T03:55:57;1.60;99.90
22065;DHT22;11197;53.110;8.468;2023-04-03T03:58:25;1.50;99.90
22065;DHT22;11197;53.110;8.468;2023-04-03T04:00:51;1.50;99.90
22065;DHT22;11197;53.110;8.468;2023-04-03T04:03:18;1.50;99.90
22065;DHT22;11197;53.110;8.468;2023-04-03T04:05:46;1.50;99.90
22065;DHT22;11197;53.110;8.468;2023-04-03T04:08:13;1.50;99.90
22065;DHT22;11197;53.110;8.468;2023-04-03T04:10:38;1.40;99.90
22065;DHT22;11197;53.110;8.468;2023-04-03T04:13:06;1.40;99.90
22065;DHT22;11197;53.110;8.468;2023-04-03T04:15:31;1.40;99.90
22065;DHT22;11197;53.110;8.468;2023-04-03T04:17:57;1.40;99.90
22065;DHT22;11197;53.110;8.468;2023-04-03T04:20:24;1.30;99.90
22065;DHT22;11197;53.110;8.468;2023-04-03T04:22:50;1.30;99.90
22065;DHT22;11197;53.110;8.468;2023-04-03T04:25:17;1.30;99.90
22065;DHT22;11197;53.110;8.468;2023-04-03T04:27:43;1.30;99.90
22065;DHT22;11197;53.110;8.468;2023-04-03T04:30:13;1.30;99.90
22065;DHT22;11197;53.110;8.468;2023-04-03T04:32:40;1.20;99.90
22065;DHT22;11197;53.110;8.468;2023-04-03T04:35:09;1.30;99.90
22065;DHT22;11197;53.110;8.468;2023-04-03T04:37:39;1.20;99.90
22065;DHT22;11197;53.110;8.468;2023-04-03T04:40:06;1.20;99.90
22065;DHT22;11197;53.110;8.468;2023-04-03T04:42:32;1.20;99.90
22065;DHT22;11197;53.110;8.468;2023-04-03T04:44:58;1.20;99.90
22065;DHT22;11197;53.110;8.468;2023-04-03T04:47:24;1.10;99.90
22065;DHT22;11197;53.110;8.468;2023-04-03T04:49:50;1.10;99.90
22065;DHT22;11197;53.110;8.468;2023-04-03T04:52:17;1.10;99.90
22065;DHT22;11197;53.110;8.468;2023-04-03T04:54:43;1.10;99.90
22065;DHT22;11197;53.110;8.468;2023-04-03T04:57:09;1.10;99.90
22065;DHT22;11197;53.110;8.468;2023-04-03T04:59:36;1.10;99.90
22065;DHT22;11197;53.110;8.468;2023-04-03T05:02:05;1.10;99.90
22065;DHT22;11197;53.110;8.468;2023-04-03T05:04:31;1.10;99.90
22065;DHT22;11197;53.110;8.468;2023-04-03T05:07:03;1.00;99.90
22065;DHT22;11197;53.110;8.468;2023-04-03T05:09:33;1.00;99.90
22065;DHT22;11197;53.110;8.468;2023-04-03T05:11:58;1.00;99.90
22065;DHT22;11197;53.110;8.468;2023-04-03T05:14:28;1.00;99.90
22065;DHT22;11197;53.110;8.468;2023-04-03T05:16:59;1.00;99.90
22065;DHT22;11197;53.110;8.468;2023-04-03T05:19:29;1.00;99.90
22065;DHT22;11197;53.110;8.468;2023-04-03T05:21:55;0.90;99.90
22065;DHT22;11197;53.110;8.468;2023-04-03T05:24:22;0.90;99.90
22065;DHT22;11197;53.110;8.468;2023-04-03T05:26:48;0.90;99.90
22065;DHT22;11197;53.110;8.468;2023-04-03T05:29:14;0.90;99.90
22065;DHT22;11197;53.110;8.468;2023-04-03T05:31:41;0.90;99.90
22065;DHT22;11197;53.110;8.468;2023-04-03T05:34:09;0.90;99.90
22065;DHT22;11197;53.110;8.468;2023-04-03T05:36:37;0.90;99.90
22065;DHT22;11197;53.110;8.468;2023-04-03T05:39:06;0.80;99.90
22065;DHT22;11197;53.110;8.468;2023-04-03T05:41:35;0.80;99.90
22065;DHT22;11197;53.110;8.468;2023-04-03T05:44:01;0.80;99.90
22065;DHT22;11197;53.110;8.468;2023-04-03T05:46:27;0.80;99.90
22065;DHT22;11197;53.110;8.468;2023-04-03T05:48:55;0.80;99.90
22065;DHT22;11197;53.110;8.468;2023-04-03T05:51:29;0.80;99.90
22065;DHT22;11197;53.110;8.468;2023-04-03T05:54:09;0.80;99.90
22065;DHT22;11197;53.110;8.468;2023-04-03T05:56:38;0.80;99.90
22065;DHT22;11197;53.110;8.468;2023-04-03T05:59:04;0.80;99.90
22065;DHT22;11197;53.110;8.468;2023-04-03T06:01:30;0.80;99.90
22065;DHT22;11197;53.110;8.468;2023-04-03T06:03:56;0.80;99.90
22065;DHT22;11197;53.110;8.468;2023-04-03T06:06:24;0.90;99.90
22065;DHT22;11197;53.110;8.468;2023-04-03T06:08:50;0.90;99.90
22065;DHT22;11197;53.110;8.468;2023-04-03T06:11:16;1.00;99.90
22065;DHT22;11197;53.110;8.468;2023-04-03T06:13:42;1.00;99.90
22065;DHT22;11197;53.110;8.468;2023-04-03T06:16:12;1.00;99.90
22065;DHT22;11197;53.110;8.468;2023-04-03T06:18:40;1.10;99.90
22065;DHT22;11197;53.110;8.468;2023-04-03T06:21:07;1.10;99.90
22065;DHT22;11197;53.110;8.468;2023-04-03T06:23:33;1.20;99.90
22065;DHT22;11197;53.110;8.468;2023-04-03T06:25:59;1.20;99.90
22065;DHT22;11197;53.110;8.468;2023-04-03T06:28:26;1.20;99.90
22065;DHT22;11197;53.110;8.468;2023-04-03T06:30:52;1.20;99.90
22065;DHT22;11197;53.110;8.468;2023-04-03T06:33:17;1.30;99.90
22065;DHT22;11197;53.110;8.468;2023-04-03T06:35:45;1.30;99.90
22065;DHT22;11197;53.110;8.468;2023-04-03T06:38:11;1.30;99.90
22065;DHT22;11197;53.110;8.468;2023-04-03T06:40:37;1.30;99.90
22065;DHT22;11197;53.110;8.468;2023-04-03T06:43:03;1.40;99.90
22065;DHT22;11197;53.110;8.468;2023-04-03T06:45:30;1.40;99.90
22065;DHT22;11197;53.110;8.468;2023-04-03T06:47:56;1.40;99.90
22065;DHT22;11197;53.110;8.468;2023-04-03T06:50:22;1.40;99.90
22065;DHT22;11197;53.110;8.468;2023-04-03T06:52:49;1.40;99.90
22065;DHT22;11197;53.110;8.468;2023-04-03T06:55:15;1.50;99.90
22065;DHT22;11197;53.110;8.468;2023-04-03T06:57:41;1.50;99.90
22065;DHT22;11197;53.110;8.468;2023-04-03T07:00:07;1.50;99.90
22065;DHT22;11197;53.110;8.468;2023-04-03T07:02:34;1.50;99.90
22065;DHT22;11197;53.110;8.468;2023-04-03T07:05:00;1.60;99.90
22065;DHT22;11197;53.110;8.468;2023-04-03T07:07:26;1.60;99.90
22065;DHT22;11197;53.110;8.468;2023-04-03T07:09:52;1.70;99.90
22065;DHT22;11197;53.110;8.468;2023-04-03T07:12:18;1.70;99.90
22065;DHT22;11197;53.110;8.468;2023-04-03T07:14:43;1.80;99.90
22065;DHT22;11197;53.110;8.468;2023-04-03T07:17:09;1.80;99.90
22065;DHT22;11197;53.110;8.468;2023-04-03T07:19:35;1.90;99.90
22065;DHT22;11197;53.110;8.468;2023-04-03T07:22:01;2.00;99.90
22065;DHT22;11197;53.110;8.468;2023-04-03T07:24:27;2.00;99.90
22065;DHT22;11197;53.110;8.468;2023-04-03T07:26:53;2.20;99.90
22065;DHT22;11197;53.110;8.468;2023-04-03T07:29:19;2.20;99.90
22065;DHT22;11197;53.110;8.468;2023-04-03T07:31:47;2.30;99.90
22065;DHT22;11197;53.110;8.468;2023-04-03T07:34:13;2.50;99.90
22065;DHT22;11197;53.110;8.468;2023-04-03T07:36:38;2.50;99.90
22065;DHT22;11197;53.110;8.468;2023-04-03T07:39:04;2.70;99.90
22065;DHT22;11197;53.110;8.468;2023-04-03T07:41:31;2.70;99.90
22065;DHT22;11197;53.110;8.468;2023-04-03T07:43:57;2.90;99.90
22065;DHT22;11197;53.110;8.468;2023-04-03T07:46:23;3.00;99.90
22065;DHT22;11197;53.110;8.468;2023-04-03T07:48:49;3.10;99.90
22065;DHT22;11197;53.110;8.468;2023-04-03T07:51:15;3.10;99.90
22065;DHT22;11197;53.110;8.468;2023-04-03T07:53:41;3.20;99.90
22065;DHT22;11197;53.110;8.468;2023-04-03T07:56:08;3.30;99.90
22065;DHT22;11197;53.110;8.468;2023-04-03T07:58:34;3.40;99.90
22065;DHT22;11197;53.110;8.468;2023-04-03T08:01:00;3.50;99.90
22065;DHT22;11197;53.110;8.468;2023-04-03T08:03:26;3.50;99.90
22065;DHT22;11197;53.110;8.468;2023-04-03T08:05:52;3.60;99.90
22065;DHT22;11197;53.110;8.468;2023-04-03T08:08:21;3.70;99.90
22065;DHT22;11197;53.110;8.468;2023-04-03T08:10:52;3.70;99.90
22065;DHT22;11197;53.110;8.468;2023-04-03T08:13:19;3.80;99.90
22065;DHT22;11197;53.110;8.468;2023-04-03T08:15:45;3.90;99.90
22065;DHT22;11197;53.110;8.468;2023-04-03T08:18:12;4.00;99.90
22065;DHT22;11197;53.110;8.468;2023-04-03T08:20:38;4.00;99.90
22065;DHT22;11197;53.110;8.468;2023-04-03T08:23:08;4.00;99.90
22065;DHT22;11197;53.110;8.468;2023-04-03T08:25:38;4.00;99.90
22065;DHT22;11197;53.110;8.468;2023-04-03T08:28:04;4.00;99.90
22065;DHT22;11197;53.110;8.468;2023-04-03T08:30:29;4.00;99.90
22065;DHT22;11197;53.110;8.468;2023-04-03T08:32:56;4.10;99.90
22065;DHT22;11197;53.110;8.468;2023-04-03T08:35:21;4.10;99.90
22065;DHT22;11197;53.110;8.468;2023-04-03T08:37:47;4.10;99.90
22065;DHT22;11197;53.110;8.468;2023-04-03T08:40:15;4.10;99.90
22065;DHT22;11197;53.110;8.468;2023-04-03T08:45:42;4.20;99.90
22065;DHT22;11197;53.110;8.468;2023-04-03T08:48:17;4.30;99.90
22065;DHT22;11197;53.110;8.468;2023-04-03T08:50:51;4.30;99.90
22065;DHT22;11197;53.110;8.468;2023-04-03T08:53:21;4.40;99.90
22065;DHT22;11197;53.110;8.468;2023-04-03T08:55:50;4.40;99.90
22065;DHT22;11197;53.110;8.468;2023-04-03T08:58:25;4.40;99.90
22065;DHT22;11197;53.110;8.468;2023-04-03T09:01:00;4.40;99.90
22065;DHT22;11197;53.110;8.468;2023-04-03T09:03:33;4.50;99.90
22065;DHT22;11197;53.110;8.468;2023-04-03T09:06:20;4.40;99.90
22065;DHT22;11197;53.110;8.468;2023-04-03T09:11:58;4.50;99.90
22065;DHT22;11197;53.110;8.468;2023-04-03T09:17:04;4.70;99.90
22065;DHT22;11197;53.110;8.468;2023-04-03T09:20:06;4.70;99.90
22065;DHT22;11197;53.110;8.468;2023-04-03T09:22:40;4.80;99.90
22065;DHT22;11197;53.110;8.468;2023-04-03T09:25:32;4.80;99.90
22065;DHT22;11197;53.110;8.468;2023-04-03T09:28:01;4.80;99.90
22065;DHT22;11197;53.110;8.468;2023-04-03T09:30:28;4.80;99.90
22065;DHT22;11197;53.110;8.468;2023-04-03T09:32:56;4.80;99.90
22065;DHT22;11197;53.110;8.468;2023-04-03T09:35:30;4.90;99.90
22065;DHT22;11197;53.110;8.468;2023-04-03T09:40:43;5.10;99.90
22065;DHT22;11197;53.110;8.468;2023-04-03T09:43:20;5.10;99.90
22065;DHT22;11197;53.110;8.468;2023-04-03T09:45:48;5.00;99.90
22065;DHT22;11197;53.110;8.468;2023-04-03T09:48:24;5.10;99.90
22065;DHT22;11197;53.110;8.468;2023-04-03T09:53:36;5.10;99.90
22065;DHT22;11197;53.110;8.468;2023-04-03T09:58:46;5.30;99.40
22065;DHT22;11197;53.110;8.468;2023-04-03T10:01:41;5.40;95.30
22065;DHT22;11197;53.110;8.468;2023-04-03T10:06:49;5.40;95.30
22065;DHT22;11197;53.110;8.468;2023-04-03T10:09:30;5.40;93.90
22065;DHT22;11197;53.110;8.468;2023-04-03T10:12:00;5.40;93.60
22065;DHT22;11197;53.110;8.468;2023-04-03T10:14:28;5.50;93.00
22065;DHT22;11197;53.110;8.468;2023-04-03T10:24:37;5.60;94.20
22065;DHT22;11197;53.110;8.468;2023-04-03T10:27:33;5.60;94.50
22065;DHT22;11197;53.110;8.468;2023-04-03T10:32:40;5.70;94.80
22065;DHT22;11197;53.110;8.468;2023-04-03T10:35:18;5.70;94.30
22065;DHT22;11197;53.110;8.468;2023-04-03T10:40:45;5.80;94.00
22065;DHT22;11197;53.110;8.468;2023-04-03T10:43:29;5.90;91.80
22065;DHT22;11197;53.110;8.468;2023-04-03T10:54:11;6.00;91.10
22065;DHT22;11197;53.110;8.468;2023-04-03T11:01:42;6.30;90.50
22065;DHT22;11197;53.110;8.468;2023-04-03T11:04:10;6.30;90.20
22065;DHT22;11197;53.110;8.468;2023-04-03T11:07:25;6.30;90.70
22065;DHT22;11197;53.110;8.468;2023-04-03T11:10:00;6.30;90.20
22065;DHT22;11197;53.110;8.468;2023-04-03T11:12:52;6.40;88.50
22065;DHT22;11197;53.110;8.468;2023-04-03T11:15:22;6.30;88.70
22065;DHT22;11197;53.110;8.468;2023-04-03T11:18:27;6.40;90.00
22065;DHT22;11197;53.110;8.468;2023-04-03T11:21:03;6.50;87.30
22065;DHT22;11197;53.110;8.468;2023-04-03T11:23:34;6.50;87.30
22065;DHT22;11197;53.110;8.468;2023-04-03T11:26:27;6.60;86.70
22065;DHT22;11197;53.110;8.468;2023-04-03T11:29:05;6.60;86.90
22065;DHT22;11197;53.110;8.468;2023-04-03T11:31:44;6.60;87.40
22065;DHT22;11197;53.110;8.468;2023-04-03T11:37:00;6.70;86.80
22065;DHT22;11197;53.110;8.468;2023-04-03T11:39:32;6.70;86.30
22065;DHT22;11197;53.110;8.468;2023-04-03T11:44:41;6.80;86.00
22065;DHT22;11197;53.110;8.468;2023-04-03T11:47:11;6.80;87.40
22065;DHT22;11197;53.110;8.468;2023-04-03T12:27:03;7.20;84.30
22065;DHT22;11197;53.110;8.468;2023-04-03T12:48:58;7.80;80.90
22065;DHT22;11197;53.110;8.468;2023-04-03T12:51:42;7.70;81.40
22065;DHT22;11197;53.110;8.468;2023-04-03T12:54:37;7.70;81.60
22065;DHT22;11197;53.110;8.468;2023-04-03T12:57:27;7.70;82.10
22065;DHT22;11197;53.110;8.468;2023-04-03T12:59:54;7.80;80.90
22065;DHT22;11197;53.110;8.468;2023-04-03T13:04:46;7.90;80.70
22065;DHT22;11197;53.110;8.468;2023-04-03T13:07:30;8.00;81.30
22065;DHT22;11197;53.110;8.468;2023-04-03T13:12:26;8.00;82.40
22065;DHT22;11197;53.110;8.468;2023-04-03T13:14:55;8.00;81.70
22065;DHT22;11197;53.110;8.468;2023-04-03T13:17:22;8.00;81.40
22065;DHT22;11197;53.110;8.468;2023-04-03T13:19:48;8.10;82.10
22065;DHT22;11197;53.110;8.468;2023-04-03T13:22:28;8.20;80.00
22065;DHT22;11197;53.110;8.468;2023-04-03T13:24:55;8.20;80.70
22065;DHT22;11197;53.110;8.468;2023-04-03T13:27:22;8.20;80.20
22065;DHT22;11197;53.110;8.468;2023-04-03T13:29:53;8.20;79.50
22065;DHT22;11197;53.110;8.468;2023-04-03T13:32:22;8.20;80.70
22065;DHT22;11197;53.110;8.468;2023-04-03T13:34:48;8.20;81.60
22065;DHT22;11197;53.110;8.468;2023-04-03T13:42:37;8.30;81.80
22065;DHT22;11197;53.110;8.468;2023-04-03T13:45:23;8.40;80.70
22065;DHT22;11197;53.110;8.468;2023-04-03T13:47:53;8.40;79.60
22065;DHT22;11197;53.110;8.468;2023-04-03T13:50:25;8.40;77.90
22065;DHT22;11197;53.110;8.468;2023-04-03T13:55:29;8.40;78.40
22065;DHT22;11197;53.110;8.468;2023-04-03T13:58:21;8.50;78.50
22065;DHT22;11197;53.110;8.468;2023-04-03T14:00:52;8.50;78.90
22065;DHT22;11197;53.110;8.468;2023-04-03T14:03:25;8.50;78.60
22065;DHT22;11197;53.110;8.468;2023-04-03T14:05:52;8.50;78.70
22065;DHT22;11197;53.110;8.468;2023-04-03T14:08:19;8.60;78.40
22065;DHT22;11197;53.110;8.468;2023-04-03T14:10:45;8.60;77.70
22065;DHT22;11197;53.110;8.468;2023-04-03T14:13:18;8.60;78.70
22065;DHT22;11197;53.110;8.468;2023-04-03T14:15:47;8.50;78.70
22065;DHT22;11197;53.110;8.468;2023-04-03T14:18:16;8.50;79.20
22065;DHT22;11197;53.110;8.468;2023-04-03T14:20:43;8.50;79.90
22065;DHT22;11197;53.110;8.468;2023-04-03T14:23:09;8.50;77.90
22065;DHT22;11197;53.110;8.468;2023-04-03T14:25:39;8.60;78.60
22065;DHT22;11197;53.110;8.468;2023-04-03T14:28:19;8.50;79.40
22065;DHT22;11197;53.110;8.468;2023-04-03T14:30:48;8.50;76.80
22065;DHT22;11197;53.110;8.468;2023-04-03T14:33:17;8.60;76.30
22065;DHT22;11197;53.110;8.468;2023-04-03T14:35:44;8.60;77.50
22065;DHT22;11197;53.110;8.468;2023-04-03T14:38:30;8.60;76.20
22065;DHT22;11197;53.110;8.468;2023-04-03T14:40:57;8.70;77.40
22065;DHT22;11197;53.110;8.468;2023-04-03T14:43:23;8.70;77.40
22065;DHT22;11197;53.110;8.468;2023-04-03T14:45:50;8.80;76.00
22065;DHT22;11197;53.110;8.468;2023-04-03T14:48:27;8.80;75.80
22065;DHT22;11197;53.110;8.468;2023-04-03T14:50:53;8.90;76.50
22065;DHT22;11197;53.110;8.468;2023-04-03T14:53:20;8.90;75.80
22065;DHT22;11197;53.110;8.468;2023-04-03T14:55:52;9.00;76.80
22065;DHT22;11197;53.110;8.468;2023-04-03T14:58:20;9.10;74.50
22065;DHT22;11197;53.110;8.468;2023-04-03T15:00:46;9.10;74.90
22065;DHT22;11197;53.110;8.468;2023-04-03T15:03:19;9.10;74.60
22065;DHT22;11197;53.110;8.468;2023-04-03T15:05:46;9.10;75.10
22065;DHT22;11197;53.110;8.468;2023-04-03T15:08:21;9.10;74.80
22065;DHT22;11197;53.110;8.468;2023-04-03T15:10:48;9.20;75.90
22065;DHT22;11197;53.110;8.468;2023-04-03T15:13:14;9.20;75.60
22065;DHT22;11197;53.110;8.468;2023-04-03T15:15:41;9.20;75.60
22065;DHT22;11197;53.110;8.468;2023-04-03T15:18:14;9.20;74.20
22065;DHT22;11197;53.110;8.468;2023-04-03T15:20:40;9.10;75.00
22065;DHT22;11197;53.110;8.468;2023-04-03T15:23:06;9.10;75.20
22065;DHT22;11197;53.110;8.468;2023-04-03T15:25:33;9.10;75.60
22065;DHT22;11197;53.110;8.468;2023-04-03T15:27:59;9.10;73.60
22065;DHT22;11197;53.110;8.468;2023-04-03T15:30:25;9.00;74.00
22065;DHT22;11197;53.110;8.468;2023-04-03T15:32:51;9.00;75.90
22065;DHT22;11197;53.110;8.468;2023-04-03T15:35:18;9.00;75.70
22065;DHT22;11197;53.110;8.468;2023-04-03T15:37:44;9.00;77.30
22065;DHT22;11197;53.110;8.468;2023-04-03T15:40:10;9.10;79.30
22065;DHT22;11197;53.110;8.468;2023-04-03T15:42:36;9.10;79.50
22065;DHT22;11197;53.110;8.468;2023-04-03T15:45:03;9.10;76.90
22065;DHT22;11197;53.110;8.468;2023-04-03T15:47:29;9.10;74.60
22065;DHT22;11197;53.110;8.468;2023-04-03T15:49:55;9.10;75.60
22065;DHT22;11197;53.110;8.468;2023-04-03T15:52:22;9.10;76.00
22065;DHT22;11197;53.110;8.468;2023-04-03T15:54:47;9.10;76.20
22065;DHT22;11197;53.110;8.468;2023-04-03T15:57:13;9.10;76.40
22065;DHT22;11197;53.110;8.468;2023-04-03T15:59:39;9.10;76.50
22065;DHT22;11197;53.110;8.468;2023-04-03T16:02:07;9.00;76.20
22065;DHT22;11197;53.110;8.468;2023-04-03T16:04:35;9.00;75.20
22065;DHT22;11197;53.110;8.468;2023-04-03T16:07:04;9.00;76.10
22065;DHT22;11197;53.110;8.468;2023-04-03T16:09:31;8.90;77.00
22065;DHT22;11197;53.110;8.468;2023-04-03T16:11:58;8.90;76.30
22065;DHT22;11197;53.110;8.468;2023-04-03T16:14:24;8.90;77.70
22065;DHT22;11197;53.110;8.468;2023-04-03T16:16:50;8.90;77.80
22065;DHT22;11197;53.110;8.468;2023-04-03T16:19:15;8.90;76.90
22065;DHT22;11197;53.110;8.468;2023-04-03T16:21:41;8.90;76.70
22065;DHT22;11197;53.110;8.468;2023-04-03T16:24:08;8.90;76.80
22065;DHT22;11197;53.110;8.468;2023-04-03T16:26:34;8.90;77.20
22065;DHT22;11197;53.110;8.468;2023-04-03T16:29:00;8.90;77.80
22065;DHT22;11197;53.110;8.468;2023-04-03T16:31:26;8.90;77.90
22065;DHT22;11197;53.110;8.468;2023-04-03T16:33:52;8.90;77.00
22065;DHT22;11197;53.110;8.468;2023-04-03T16:36:18;8.90;76.90
22065;DHT22;11197;53.110;8.468;2023-04-03T16:38:47;8.90;77.10
22065;DHT22;11197;53.110;8.468;2023-04-03T16:41:13;8.90;76.60
22065;DHT22;11197;53.110;8.468;2023-04-03T16:43:38;8.90;76.90
22065;DHT22;11197;53.110;8.468;2023-04-03T16:46:05;8.90;76.20
22065;DHT22;11197;53.110;8.468;2023-04-03T16:48:31;8.80;76.70
22065;DHT22;11197;53.110;8.468;2023-04-03T16:50:57;8.80;77.00
22065;DHT22;11197;53.110;8.468;2023-04-03T16:53:24;8.70;77.20
22065;DHT22;11197;53.110;8.468;2023-04-03T16:55:50;8.70;77.20
22065;DHT22;11197;53.110;8.468;2023-04-03T16:58:16;8.60;78.00
22065;DHT22;11197;53.110;8.468;2023-04-03T17:00:42;8.60;77.70
22065;DHT22;11197;53.110;8.468;2023-04-03T17:03:08;8.60;78.60
22065;DHT22;11197;53.110;8.468;2023-04-03T17:05:34;8.60;77.20
22065;DHT22;11197;53.110;8.468;2023-04-03T17:08:00;8.50;78.10
22065;DHT22;11197;53.110;8.468;2023-04-03T17:10:27;8.40;78.80
22065;DHT22;11197;53.110;8.468;2023-04-03T17:12:53;8.40;78.20
22065;DHT22;11197;53.110;8.468;2023-04-03T17:15:19;8.40;79.30
22065;DHT22;11197;53.110;8.468;2023-04-03T17:17:48;8.40;78.10
22065;DHT22;11197;53.110;8.468;2023-04-03T17:20:14;8.40;78.70
22065;DHT22;11197;53.110;8.468;2023-04-03T17:22:40;8.40;78.60
22065;DHT22;11197;53.110;8.468;2023-04-03T17:25:06;8.40;78.50
22065;DHT22;11197;53.110;8.468;2023-04-03T17:27:32;8.30;78.50
22065;DHT22;11197;53.110;8.468;2023-04-03T17:29:58;8.30;79.10
22065;DHT22;11197;53.110;8.468;2023-04-03T17:32:24;8.30;79.90
22065;DHT22;11197;53.110;8.468;2023-04-03T17:34:50;8.30;80.30
22065;DHT22;11197;53.110;8.468;2023-04-03T17:37:16;8.20;79.60
22065;DHT22;11197;53.110;8.468;2023-04-03T17:39:42;8.20;79.70
22065;DHT22;11197;53.110;8.468;2023-04-03T17:42:08;8.20;80.20
22065;DHT22;11197;53.110;8.468;2023-04-03T17:44:34;8.10;80.00
22065;DHT22;11197;53.110;8.468;2023-04-03T17:47:03;8.10;80.10
22065;DHT22;11197;53.110;8.468;2023-04-03T17:49:32;8.00;80.50
22065;DHT22;11197;53.110;8.468;2023-04-03T17:51:58;8.00;81.30
22065;DHT22;11197;53.110;8.468;2023-04-03T17:54:24;8.00;82.10
22065;DHT22;11197;53.110;8.468;2023-04-03T17:56:50;8.00;82.60
22065;DHT22;11197;53.110;8.468;2023-04-03T17:59:16;8.00;82.30
22065;DHT22;11197;53.110;8.468;2023-04-03T18:01:44;7.90;82.40